sensor_id;sensor_type;location;lat;lon;timestamp;P1;durP1;ratioP1;P2;durP2;ratioP2
56043;SDS011;41912;51.022;3.664;2022-12-07T00:03:36;7.15;;;4.15;;
56043;SDS011;41912;51.022;3.664;2022-12-07T00:06:02;14.70;;;4.78;;
56043;SDS011;41912;51.022;3.664;2022-12-07T00:08:29;8.60;;;4.13;;
56043;SDS011;41912;51.022;3.664;2022-12-07T00:11:00;7.45;;;4.70;;
56043;SDS011;41912;51.022;3.664;2022-12-07T00:13:28;8.15;;;4.28;;
56043;SDS011;41912;51.022;3.664;2022-12-07T00:15:55;6.20;;;3.95;;
56043;SDS011;41912;51.022;3.664;2022-12-07T00:18:20;8.95;;;3.75;;
56043;SDS011;41912;51.022;3.664;2022-12-07T00:20:46;7.93;;;4.38;;
56043;SDS011;41912;51.022;3.664;2022-12-07T00:23:11;8.27;;;4.18;;
56043;SDS011;41912;51.022;3.664;2022-12-07T00:25:37;6.90;;;3.70;;
56043;SDS011;41912;51.022;3.664;2022-12-07T00:28:03;6.38;;;3.88;;
56043;SDS011;41912;51.022;3.664;2022-12-07T00:30:29;8.32;;;3.83;;
56043;SDS011;41912;51.022;3.664;2022-12-07T00:32:54;5.57;;;3.78;;
56043;SDS011;41912;51.022;3.664;2022-12-07T00:35:20;9.65;;;3.95;;
56043;SDS011;41912;51.022;3.664;2022-12-07T00:37:46;4.80;;;3.30;;
56043;SDS011;41912;51.022;3.664;2022-12-07T00:40:11;11.20;;;4.90;;
56043;SDS011;41912;51.022;3.664;2022-12-07T00:42:37;10.63;;;3.42;;
56043;SDS011;41912;51.022;3.664;2022-12-07T00:45:03;8.68;;;3.60;;
56043;SDS011;41912;51.022;3.664;2022-12-07T00:47:29;11.02;;;3.83;;
56043;SDS011;41912;51.022;3.664;2022-12-07T00:49:54;7.70;;;3.55;;
56043;SDS011;41912;51.022;3.664;2022-12-07T00:52:20;8.80;;;3.22;;
56043;SDS011;41912;51.022;3.664;2022-12-07T00:54:45;7.13;;;3.22;;
56043;SDS011;41912;51.022;3.664;2022-12-07T00:57:11;7.82;;;3.38;;
56043;SDS011;41912;51.022;3.664;2022-12-07T00:59:36;8.13;;;3.70;;
56043;SDS011;41912;51.022;3.664;2022-12-07T01:02:02;7.60;;;3.13;;
56043;SDS011;41912;51.022;3.664;2022-12-07T01:04:28;5.97;;;2.92;;
56043;SDS011;41912;51.022;3.664;2022-12-07T01:06:54;7.30;;;3.05;;
56043;SDS011;41912;51.022;3.664;2022-12-07T01:09:20;5.05;;;2.42;;
56043;SDS011;41912;51.022;3.664;2022-12-07T01:11:45;11.20;;;3.08;;
56043;SDS011;41912;51.022;3.664;2022-12-07T01:14:11;2.83;;;2.00;;
56043;SDS011;41912;51.022;3.664;2022-12-07T01:16:37;3.60;;;2.35;;
56043;SDS011;41912;51.022;3.664;2022-12-07T01:19:03;6.20;;;2.70;;
56043;SDS011;41912;51.022;3.664;2022-12-07T01:21:30;6.18;;;3.17;;
56043;SDS011;41912;51.022;3.664;2022-12-07T01:24:00;5.88;;;2.65;;
56043;SDS011;41912;51.022;3.664;2022-12-07T01:26:26;3.95;;;2.55;;
56043;SDS011;41912;51.022;3.664;2022-12-07T01:28:52;2.90;;;2.40;;
56043;SDS011;41912;51.022;3.664;2022-12-07T01:31:20;7.57;;;3.20;;
56043;SDS011;41912;51.022;3.664;2022-12-07T01:33:48;8.38;;;4.32;;
56043;SDS011;41912;51.022;3.664;2022-12-07T01:36:26;8.77;;;3.33;;
56043;SDS011;41912;51.022;3.664;2022-12-07T01:39:00;5.43;;;2.42;;
56043;SDS011;41912;51.022;3.664;2022-12-07T01:41:29;5.72;;;3.30;;
56043;SDS011;41912;51.022;3.664;2022-12-07T01:46:41;5.25;;;3.17;;
56043;SDS011;41912;51.022;3.664;2022-12-07T01:49:16;7.28;;;3.13;;
56043;SDS011;41912;51.022;3.664;2022-12-07T01:52:24;5.68;;;2.97;;
56043;SDS011;41912;51.022;3.664;2022-12-07T01:54:56;5.78;;;3.20;;
56043;SDS011;41912;51.022;3.664;2022-12-07T01:57:30;5.57;;;2.70;;
56043;SDS011;41912;51.022;3.664;2022-12-07T01:59:57;4.50;;;3.30;;
56043;SDS011;41912;51.022;3.664;2022-12-07T02:02:26;10.50;;;4.50;;
56043;SDS011;41912;51.022;3.664;2022-12-07T02:04:56;6.43;;;3.25;;
56043;SDS011;41912;51.022;3.664;2022-12-07T02:07:23;8.60;;;3.65;;
56043;SDS011;41912;51.022;3.664;2022-12-07T02:09:50;13.45;;;4.72;;
56043;SDS011;41912;51.022;3.664;2022-12-07T02:12:16;7.60;;;4.07;;
56043;SDS011;41912;51.022;3.664;2022-12-07T02:14:42;6.57;;;4.03;;
56043;SDS011;41912;51.022;3.664;2022-12-07T02:29:22;9.30;;;4.55;;
56043;SDS011;41912;51.022;3.664;2022-12-07T02:31:57;5.78;;;3.70;;
56043;SDS011;41912;51.022;3.664;2022-12-07T02:37:17;7.13;;;4.07;;
56043;SDS011;41912;51.022;3.664;2022-12-07T02:40:16;5.50;;;3.60;;
56043;SDS011;41912;51.022;3.664;2022-12-07T02:42:51;7.30;;;3.83;;
56043;SDS011;41912;51.022;3.664;2022-12-07T02:45:23;7.53;;;4.07;;
56043;SDS011;41912;51.022;3.664;2022-12-07T02:47:51;6.82;;;4.13;;
56043;SDS011;41912;51.022;3.664;2022-12-07T02:50:21;9.23;;;4.63;;
56043;SDS011;41912;51.022;3.664;2022-12-07T02:52:47;8.13;;;3.70;;
56043;SDS011;41912;51.022;3.664;2022-12-07T02:55:13;8.05;;;4.07;;
56043;SDS011;41912;51.022;3.664;2022-12-07T02:58:01;6.33;;;4.00;;
56043;SDS011;41912;51.022;3.664;2022-12-07T03:00:46;5.72;;;3.92;;
56043;SDS011;41912;51.022;3.664;2022-12-07T03:03:23;6.65;;;3.80;;
56043;SDS011;41912;51.022;3.664;2022-12-07T03:11:12;12.45;;;5.10;;
56043;SDS011;41912;51.022;3.664;2022-12-07T03:16:30;11.18;;;4.63;;
56043;SDS011;41912;51.022;3.664;2022-12-07T03:21:41;7.07;;;4.25;;
56043;SDS011;41912;51.022;3.664;2022-12-07T03:24:14;8.98;;;5.38;;
56043;SDS011;41912;51.022;3.664;2022-12-07T03:26:47;6.00;;;4.45;;
56043;SDS011;41912;51.022;3.664;2022-12-07T03:29:21;7.90;;;3.75;;
56043;SDS011;41912;51.022;3.664;2022-12-07T03:34:44;9.15;;;4.50;;
56043;SDS011;41912;51.022;3.664;2022-12-07T03:37:26;8.82;;;3.67;;
56043;SDS011;41912;51.022;3.664;2022-12-07T03:42:47;6.95;;;3.28;;
56043;SDS011;41912;51.022;3.664;2022-12-07T03:45:13;9.18;;;3.72;;
56043;SDS011;41912;51.022;3.664;2022-12-07T03:47:43;7.43;;;3.00;;
56043;SDS011;41912;51.022;3.664;2022-12-07T03:50:21;4.95;;;3.20;;
56043;SDS011;41912;51.022;3.664;2022-12-07T03:53:02;8.05;;;3.38;;
56043;SDS011;41912;51.022;3.664;2022-12-07T03:55:35;5.40;;;3.08;;
56043;SDS011;41912;51.022;3.664;2022-12-07T03:58:06;5.43;;;2.65;;
56043;SDS011;41912;51.022;3.664;2022-12-07T04:00:36;4.50;;;2.97;;
56043;SDS011;41912;51.022;3.664;2022-12-07T04:03:02;6.07;;;2.60;;
56043;SDS011;41912;51.022;3.664;2022-12-07T04:05:28;5.55;;;2.63;;
56043;SDS011;41912;51.022;3.664;2022-12-07T04:07:54;6.57;;;3.20;;
56043;SDS011;41912;51.022;3.664;2022-12-07T04:10:19;5.63;;;2.67;;
56043;SDS011;41912;51.022;3.664;2022-12-07T04:12:45;5.32;;;2.45;;
56043;SDS011;41912;51.022;3.664;2022-12-07T04:15:11;4.35;;;2.78;;
56043;SDS011;41912;51.022;3.664;2022-12-07T04:17:37;3.42;;;2.15;;
56043;SDS011;41912;51.022;3.664;2022-12-07T04:20:03;3.58;;;2.17;;
56043;SDS011;41912;51.022;3.664;2022-12-07T04:22:29;4.30;;;2.40;;
56043;SDS011;41912;51.022;3.664;2022-12-07T04:24:55;4.18;;;2.10;;
56043;SDS011;41912;51.022;3.664;2022-12-07T04:27:20;5.05;;;2.80;;
56043;SDS011;41912;51.022;3.664;2022-12-07T04:29:46;3.95;;;2.42;;
56043;SDS011;41912;51.022;3.664;2022-12-07T04:32:12;2.97;;;2.42;;
56043;SDS011;41912;51.022;3.664;2022-12-07T04:34:37;4.03;;;2.30;;
56043;SDS011;41912;51.022;3.664;2022-12-07T04:37:03;4.88;;;2.83;;
56043;SDS011;41912;51.022;3.664;2022-12-07T04:39:30;6.00;;;2.58;;
56043;SDS011;41912;51.022;3.664;2022-12-07T04:41:57;8.50;;;3.13;;
56043;SDS011;41912;51.022;3.664;2022-12-07T04:44:24;5.00;;;2.63;;
56043;SDS011;41912;51.022;3.664;2022-12-07T04:46:50;4.85;;;2.70;;
56043;SDS011;41912;51.022;3.664;2022-12-07T04:49:17;5.97;;;2.30;;
56043;SDS011;41912;51.022;3.664;2022-12-07T04:51:43;4.95;;;2.33;;
56043;SDS011;41912;51.022;3.664;2022-12-07T04:54:09;6.68;;;2.10;;
56043;SDS011;41912;51.022;3.664;2022-12-07T04:56:35;3.55;;;2.25;;
56043;SDS011;41912;51.022;3.664;2022-12-07T04:59:01;3.97;;;2.10;;
56043;SDS011;41912;51.022;3.664;2022-12-07T05:01:27;5.50;;;2.88;;
56043;SDS011;41912;51.022;3.664;2022-12-07T05:03:53;5.28;;;2.35;;
56043;SDS011;41912;51.022;3.664;2022-12-07T05:06:19;5.07;;;2.60;;
56043;SDS011;41912;51.022;3.664;2022-12-07T05:08:45;6.60;;;2.65;;
56043;SDS011;41912;51.022;3.664;2022-12-07T05:11:11;7.72;;;2.33;;
56043;SDS011;41912;51.022;3.664;2022-12-07T05:13:55;8.98;;;2.63;;
56043;SDS011;41912;51.022;3.664;2022-12-07T05:16:22;5.50;;;2.63;;
56043;SDS011;41912;51.022;3.664;2022-12-07T05:18:47;6.63;;;2.28;;
56043;SDS011;41912;51.022;3.664;2022-12-07T05:21:13;7.85;;;2.45;;
56043;SDS011;41912;51.022;3.664;2022-12-07T05:23:39;6.38;;;2.20;;
56043;SDS011;41912;51.022;3.664;2022-12-07T05:26:04;10.60;;;2.40;;
56043;SDS011;41912;51.022;3.664;2022-12-07T05:28:30;3.25;;;1.90;;
56043;SDS011;41912;51.022;3.664;2022-12-07T05:30:55;4.10;;;2.13;;
56043;SDS011;41912;51.022;3.664;2022-12-07T05:33:21;7.43;;;2.20;;
56043;SDS011;41912;51.022;3.664;2022-12-07T05:35:47;5.80;;;1.90;;
56043;SDS011;41912;51.022;3.664;2022-12-07T05:38:12;6.13;;;2.35;;
56043;SDS011;41912;51.022;3.664;2022-12-07T05:40:38;7.45;;;2.10;;
56043;SDS011;41912;51.022;3.664;2022-12-07T05:43:04;4.82;;;1.88;;
56043;SDS011;41912;51.022;3.664;2022-12-07T05:45:29;6.63;;;1.70;;
56043;SDS011;41912;51.022;3.664;2022-12-07T05:47:55;3.08;;;1.80;;
56043;SDS011;41912;51.022;3.664;2022-12-07T05:50:20;6.70;;;2.80;;
56043;SDS011;41912;51.022;3.664;2022-12-07T05:52:46;9.73;;;2.20;;
56043;SDS011;41912;51.022;3.664;2022-12-07T05:55:12;4.18;;;1.95;;
56043;SDS011;41912;51.022;3.664;2022-12-07T05:57:38;4.05;;;1.73;;
56043;SDS011;41912;51.022;3.664;2022-12-07T06:00:04;7.93;;;2.20;;
56043;SDS011;41912;51.022;3.664;2022-12-07T06:02:30;3.78;;;1.80;;
56043;SDS011;41912;51.022;3.664;2022-12-07T06:04:56;5.13;;;1.95;;
56043;SDS011;41912;51.022;3.664;2022-12-07T06:07:21;3.53;;;1.90;;
56043;SDS011;41912;51.022;3.664;2022-12-07T06:09:47;4.40;;;1.90;;
56043;SDS011;41912;51.022;3.664;2022-12-07T06:12:13;3.58;;;1.95;;
56043;SDS011;41912;51.022;3.664;2022-12-07T06:14:57;4.65;;;2.00;;
56043;SDS011;41912;51.022;3.664;2022-12-07T06:17:23;6.20;;;2.15;;
56043;SDS011;41912;51.022;3.664;2022-12-07T06:19:49;4.63;;;1.90;;
56043;SDS011;41912;51.022;3.664;2022-12-07T06:22:14;9.57;;;2.30;;
56043;SDS011;41912;51.022;3.664;2022-12-07T06:24:44;5.80;;;2.03;;
56043;SDS011;41912;51.022;3.664;2022-12-07T06:27:09;5.15;;;2.30;;
56043;SDS011;41912;51.022;3.664;2022-12-07T06:29:36;5.60;;;2.08;;
56043;SDS011;41912;51.022;3.664;2022-12-07T06:32:02;7.43;;;2.25;;
56043;SDS011;41912;51.022;3.664;2022-12-07T06:34:28;8.73;;;2.30;;
56043;SDS011;41912;51.022;3.664;2022-12-07T06:36:53;2.85;;;1.58;;
56043;SDS011;41912;51.022;3.664;2022-12-07T06:39:27;5.13;;;2.00;;
56043;SDS011;41912;51.022;3.664;2022-12-07T06:41:53;4.03;;;2.28;;
56043;SDS011;41912;51.022;3.664;2022-12-07T06:44:19;4.45;;;2.20;;
56043;SDS011;41912;51.022;3.664;2022-12-07T06:46:46;4.90;;;2.38;;
56043;SDS011;41912;51.022;3.664;2022-12-07T06:49:12;5.00;;;2.28;;
56043;SDS011;41912;51.022;3.664;2022-12-07T06:51:38;5.05;;;2.50;;
56043;SDS011;41912;51.022;3.664;2022-12-07T06:54:07;5.60;;;2.60;;
56043;SDS011;41912;51.022;3.664;2022-12-07T06:56:36;3.42;;;2.17;;
56043;SDS011;41912;51.022;3.664;2022-12-07T06:59:03;5.45;;;2.28;;
56043;SDS011;41912;51.022;3.664;2022-12-07T07:01:31;8.20;;;3.13;;
56043;SDS011;41912;51.022;3.664;2022-12-07T07:03:57;9.48;;;2.63;;
56043;SDS011;41912;51.022;3.664;2022-12-07T07:06:23;8.35;;;3.00;;
56043;SDS011;41912;51.022;3.664;2022-12-07T07:08:49;7.68;;;2.65;;
56043;SDS011;41912;51.022;3.664;2022-12-07T07:11:15;7.72;;;2.60;;
56043;SDS011;41912;51.022;3.664;2022-12-07T07:13:40;7.43;;;3.22;;
56043;SDS011;41912;51.022;3.664;2022-12-07T07:16:06;6.47;;;2.75;;
56043;SDS011;41912;51.022;3.664;2022-12-07T07:18:33;5.63;;;2.35;;
56043;SDS011;41912;51.022;3.664;2022-12-07T07:20:58;5.63;;;2.88;;
56043;SDS011;41912;51.022;3.664;2022-12-07T07:23:24;10.15;;;2.75;;
56043;SDS011;41912;51.022;3.664;2022-12-07T07:25:50;7.00;;;2.70;;
56043;SDS011;41912;51.022;3.664;2022-12-07T07:28:16;7.10;;;3.00;;
56043;SDS011;41912;51.022;3.664;2022-12-07T07:30:42;8.68;;;2.80;;
56043;SDS011;41912;51.022;3.664;2022-12-07T07:33:08;5.90;;;2.50;;
56043;SDS011;41912;51.022;3.664;2022-12-07T07:35:34;6.28;;;2.65;;
56043;SDS011;41912;51.022;3.664;2022-12-07T07:38:00;5.68;;;2.28;;
56043;SDS011;41912;51.022;3.664;2022-12-07T07:40:27;3.17;;;2.10;;
56043;SDS011;41912;51.022;3.664;2022-12-07T07:42:56;10.75;;;3.10;;
56043;SDS011;41912;51.022;3.664;2022-12-07T07:45:22;14.25;;;8.43;;
56043;SDS011;41912;51.022;3.664;2022-12-07T07:47:49;15.35;;;7.03;;
56043;SDS011;41912;51.022;3.664;2022-12-07T07:50:16;12.27;;;7.43;;
56043;SDS011;41912;51.022;3.664;2022-12-07T07:52:42;10.13;;;5.40;;
56043;SDS011;41912;51.022;3.664;2022-12-07T07:55:08;5.55;;;2.63;;
56043;SDS011;41912;51.022;3.664;2022-12-07T07:57:35;7.57;;;3.20;;
56043;SDS011;41912;51.022;3.664;2022-12-07T08:00:06;7.50;;;2.75;;
56043;SDS011;41912;51.022;3.664;2022-12-07T08:02:34;8.73;;;3.42;;
56043;SDS011;41912;51.022;3.664;2022-12-07T08:04:59;9.93;;;3.63;;
56043;SDS011;41912;51.022;3.664;2022-12-07T08:07:25;5.22;;;2.53;;
56043;SDS011;41912;51.022;3.664;2022-12-07T08:09:52;4.90;;;2.60;;
56043;SDS011;41912;51.022;3.664;2022-12-07T08:12:18;6.60;;;2.65;;
56043;SDS011;41912;51.022;3.664;2022-12-07T08:14:43;10.25;;;2.35;;
56043;SDS011;41912;51.022;3.664;2022-12-07T08:17:09;8.30;;;2.92;;
56043;SDS011;41912;51.022;3.664;2022-12-07T08:19:35;8.35;;;2.17;;
56043;SDS011;41912;51.022;3.664;2022-12-07T08:22:00;7.00;;;2.55;;
56043;SDS011;41912;51.022;3.664;2022-12-07T08:24:26;7.32;;;2.75;;
56043;SDS011;41912;51.022;3.664;2022-12-07T08:26:52;6.80;;;2.80;;
56043;SDS011;41912;51.022;3.664;2022-12-07T08:29:18;7.05;;;2.80;;
56043;SDS011;41912;51.022;3.664;2022-12-07T08:31:43;4.50;;;2.80;;
56043;SDS011;41912;51.022;3.664;2022-12-07T08:34:10;8.10;;;3.08;;
56043;SDS011;41912;51.022;3.664;2022-12-07T08:36:36;14.02;;;4.05;;
56043;SDS011;41912;51.022;3.664;2022-12-07T08:39:02;12.50;;;3.95;;
56043;SDS011;41912;51.022;3.664;2022-12-07T08:41:28;10.90;;;3.90;;
56043;SDS011;41912;51.022;3.664;2022-12-07T08:43:54;10.52;;;3.92;;
56043;SDS011;41912;51.022;3.664;2022-12-07T08:49:05;10.93;;;3.45;;
56043;SDS011;41912;51.022;3.664;2022-12-07T08:51:38;11.10;;;3.63;;
56043;SDS011;41912;51.022;3.664;2022-12-07T08:54:06;16.25;;;4.57;;
56043;SDS011;41912;51.022;3.664;2022-12-07T08:56:35;10.32;;;4.03;;
56043;SDS011;41912;51.022;3.664;2022-12-07T08:59:01;13.63;;;4.63;;
56043;SDS011;41912;51.022;3.664;2022-12-07T09:01:28;17.33;;;5.35;;
56043;SDS011;41912;51.022;3.664;2022-12-07T09:03:53;11.52;;;4.50;;
56043;SDS011;41912;51.022;3.664;2022-12-07T09:06:19;14.77;;;5.50;;
56043;SDS011;41912;51.022;3.664;2022-12-07T09:08:46;19.52;;;5.88;;
56043;SDS011;41912;51.022;3.664;2022-12-07T09:11:13;10.88;;;5.10;;
56043;SDS011;41912;51.022;3.664;2022-12-07T09:13:39;10.77;;;4.50;;
56043;SDS011;41912;51.022;3.664;2022-12-07T09:16:05;11.98;;;5.07;;
56043;SDS011;41912;51.022;3.664;2022-12-07T09:18:31;9.88;;;4.78;;
56043;SDS011;41912;51.022;3.664;2022-12-07T09:20:57;9.18;;;4.18;;
56043;SDS011;41912;51.022;3.664;2022-12-07T09:23:22;12.70;;;3.70;;
56043;SDS011;41912;51.022;3.664;2022-12-07T09:25:48;12.45;;;4.72;;
56043;SDS011;41912;51.022;3.664;2022-12-07T09:28:14;15.60;;;4.15;;
56043;SDS011;41912;51.022;3.664;2022-12-07T09:30:45;16.20;;;3.58;;
56043;SDS011;41912;51.022;3.664;2022-12-07T09:33:11;8.17;;;3.73;;
56043;SDS011;41912;51.022;3.664;2022-12-07T09:35:37;10.05;;;3.33;;
56043;SDS011;41912;51.022;3.664;2022-12-07T09:38:03;9.77;;;3.67;;
56043;SDS011;41912;51.022;3.664;2022-12-07T09:40:28;10.80;;;4.70;;
56043;SDS011;41912;51.022;3.664;2022-12-07T09:42:54;8.27;;;3.45;;
56043;SDS011;41912;51.022;3.664;2022-12-07T09:45:22;11.25;;;3.75;;
56043;SDS011;41912;51.022;3.664;2022-12-07T09:47:54;10.23;;;3.88;;
56043;SDS011;41912;51.022;3.664;2022-12-07T09:50:21;16.52;;;4.00;;
56043;SDS011;41912;51.022;3.664;2022-12-07T09:52:49;13.80;;;3.88;;
56043;SDS011;41912;51.022;3.664;2022-12-07T09:55:22;10.30;;;3.47;;
56043;SDS011;41912;51.022;3.664;2022-12-07T09:57:51;10.48;;;3.60;;
56043;SDS011;41912;51.022;3.664;2022-12-07T10:00:19;13.13;;;3.63;;
56043;SDS011;41912;51.022;3.664;2022-12-07T10:02:48;13.75;;;4.38;;
56043;SDS011;41912;51.022;3.664;2022-12-07T10:05:16;12.90;;;3.92;;
56043;SDS011;41912;51.022;3.664;2022-12-07T10:07:45;13.18;;;3.90;;
56043;SDS011;41912;51.022;3.664;2022-12-07T10:10:33;9.45;;;3.33;;
56043;SDS011;41912;51.022;3.664;2022-12-07T10:13:03;9.38;;;3.38;;
56043;SDS011;41912;51.022;3.664;2022-12-07T10:15:47;9.18;;;3.50;;
56043;SDS011;41912;51.022;3.664;2022-12-07T10:21:02;10.38;;;3.72;;
56043;SDS011;41912;51.022;3.664;2022-12-07T10:23:28;17.48;;;3.80;;
56043;SDS011;41912;51.022;3.664;2022-12-07T10:25:54;10.38;;;3.92;;
56043;SDS011;41912;51.022;3.664;2022-12-07T10:28:20;12.98;;;3.75;;
56043;SDS011;41912;51.022;3.664;2022-12-07T10:33:34;11.27;;;4.30;;
56043;SDS011;41912;51.022;3.664;2022-12-07T10:36:15;11.88;;;4.63;;
56043;SDS011;41912;51.022;3.664;2022-12-07T10:38:46;11.68;;;3.83;;
56043;SDS011;41912;51.022;3.664;2022-12-07T10:41:35;14.43;;;4.38;;
56043;SDS011;41912;51.022;3.664;2022-12-07T10:44:00;14.20;;;4.40;;
56043;SDS011;41912;51.022;3.664;2022-12-07T10:46:30;14.65;;;4.28;;
56043;SDS011;41912;51.022;3.664;2022-12-07T11:02:37;15.52;;;5.57;;
56043;SDS011;41912;51.022;3.664;2022-12-07T11:05:12;15.77;;;4.60;;
56043;SDS011;41912;51.022;3.664;2022-12-07T11:13:25;13.43;;;3.27;;
56043;SDS011;41912;51.022;3.664;2022-12-07T11:37:57;8.73;;;3.05;;
56043;SDS011;41912;51.022;3.664;2022-12-07T11:46:06;10.57;;;3.40;;
56043;SDS011;41912;51.022;3.664;2022-12-07T11:49:20;10.93;;;4.35;;
56043;SDS011;41912;51.022;3.664;2022-12-07T11:51:40;10.32;;;2.55;;
56043;SDS011;41912;51.022;3.664;2022-12-07T11:54:27;5.95;;;2.25;;
56043;SDS011;41912;51.022;3.664;2022-12-07T11:57:01;8.32;;;3.60;;
56043;SDS011;41912;51.022;3.664;2022-12-07T11:59:38;9.98;;;2.90;;
56043;SDS011;41912;51.022;3.664;2022-12-07T12:02:12;7.22;;;2.75;;
56043;SDS011;41912;51.022;3.664;2022-12-07T12:07:17;9.30;;;2.85;;
56043;SDS011;41912;51.022;3.664;2022-12-07T12:09:51;7.18;;;2.67;;
56043;SDS011;41912;51.022;3.664;2022-12-07T12:20:44;11.15;;;2.90;;
56043;SDS011;41912;51.022;3.664;2022-12-07T12:23:12;7.60;;;2.60;;
56043;SDS011;41912;51.022;3.664;2022-12-07T12:25:45;10.18;;;3.80;;
56043;SDS011;41912;51.022;3.664;2022-12-07T12:31:15;7.40;;;3.05;;
56043;SDS011;41912;51.022;3.664;2022-12-07T12:33:46;12.63;;;2.97;;
56043;SDS011;41912;51.022;3.664;2022-12-07T12:44:00;11.00;;;2.75;;
56043;SDS011;41912;51.022;3.664;2022-12-07T12:51:43;21.00;;;5.18;;
56043;SDS011;41912;51.022;3.664;2022-12-07T12:54:15;13.45;;;3.50;;
56043;SDS011;41912;51.022;3.664;2022-12-07T12:56:47;12.13;;;3.50;;
56043;SDS011;41912;51.022;3.664;2022-12-07T13:02:26;9.35;;;2.70;;
56043;SDS011;41912;51.022;3.664;2022-12-07T13:05:00;9.68;;;2.90;;
56043;SDS011;41912;51.022;3.664;2022-12-07T13:10:24;16.48;;;3.25;;
56043;SDS011;41912;51.022;3.664;2022-12-07T13:15:47;7.47;;;2.72;;
56043;SDS011;41912;51.022;3.664;2022-12-07T13:20:59;9.02;;;3.13;;
56043;SDS011;41912;51.022;3.664;2022-12-07T13:26:23;12.05;;;2.85;;
56043;SDS011;41912;51.022;3.664;2022-12-07T13:34:01;10.15;;;3.03;;
56043;SDS011;41912;51.022;3.664;2022-12-07T13:36:30;17.38;;;2.85;;
56043;SDS011;41912;51.022;3.664;2022-12-07T13:39:01;5.63;;;2.75;;
56043;SDS011;41912;51.022;3.664;2022-12-07T13:41:41;7.68;;;2.60;;
56043;SDS011;41912;51.022;3.664;2022-12-07T13:44:12;6.40;;;2.00;;
56043;SDS011;41912;51.022;3.664;2022-12-07T13:49:18;8.07;;;2.22;;
56043;SDS011;41912;51.022;3.664;2022-12-07T13:51:46;5.68;;;1.50;;
56043;SDS011;41912;51.022;3.664;2022-12-07T13:54:12;8.18;;;2.22;;
56043;SDS011;41912;51.022;3.664;2022-12-07T13:56:39;11.63;;;1.60;;
56043;SDS011;41912;51.022;3.664;2022-12-07T13:59:16;9.52;;;2.00;;
56043;SDS011;41912;51.022;3.664;2022-12-07T14:01:47;8.45;;;1.52;;
56043;SDS011;41912;51.022;3.664;2022-12-07T14:06:56;3.85;;;1.10;;
56043;SDS011;41912;51.022;3.664;2022-12-07T14:09:23;5.45;;;1.35;;
56043;SDS011;41912;51.022;3.664;2022-12-07T14:11:51;5.57;;;1.38;;
56043;SDS011;41912;51.022;3.664;2022-12-07T14:14:20;4.80;;;1.70;;
56043;SDS011;41912;51.022;3.664;2022-12-07T14:17:00;8.80;;;1.80;;
56043;SDS011;41912;51.022;3.664;2022-12-07T14:19:44;5.30;;;1.58;;
56043;SDS011;41912;51.022;3.664;2022-12-07T14:22:29;4.80;;;0.90;;
56043;SDS011;41912;51.022;3.664;2022-12-07T14:28:02;4.15;;;1.20;;
56043;SDS011;41912;51.022;3.664;2022-12-07T14:30:28;8.18;;;1.23;;
56043;SDS011;41912;51.022;3.664;2022-12-07T14:33:03;9.20;;;1.58;;
56043;SDS011;41912;51.022;3.664;2022-12-07T14:35:30;9.27;;;1.10;;
56043;SDS011;41912;51.022;3.664;2022-12-07T14:37:57;10.50;;;1.70;;
56043;SDS011;41912;51.022;3.664;2022-12-07T14:40:26;5.55;;;1.52;;
56043;SDS011;41912;51.022;3.664;2022-12-07T14:43:00;3.22;;;1.23;;
56043;SDS011;41912;51.022;3.664;2022-12-07T14:45:31;3.10;;;1.40;;
56043;SDS011;41912;51.022;3.664;2022-12-07T14:47:57;9.40;;;1.45;;
56043;SDS011;41912;51.022;3.664;2022-12-07T14:50:23;4.57;;;1.30;;
56043;SDS011;41912;51.022;3.664;2022-12-07T14:52:55;10.10;;;1.70;;
56043;SDS011;41912;51.022;3.664;2022-12-07T14:55:25;4.95;;;1.48;;
56043;SDS011;41912;51.022;3.664;2022-12-07T14:57:53;9.80;;;2.88;;
56043;SDS011;41912;51.022;3.664;2022-12-07T15:00:20;7.93;;;1.40;;
56043;SDS011;41912;51.022;3.664;2022-12-07T15:02:47;5.65;;;1.60;;
56043;SDS011;41912;51.022;3.664;2022-12-07T15:05:14;4.07;;;1.30;;
56043;SDS011;41912;51.022;3.664;2022-12-07T15:07:40;11.73;;;1.58;;
56043;SDS011;41912;51.022;3.664;2022-12-07T15:10:08;2.88;;;1.17;;
56043;SDS011;41912;51.022;3.664;2022-12-07T15:12:41;5.95;;;1.35;;
56043;SDS011;41912;51.022;3.664;2022-12-07T15:15:06;6.85;;;2.25;;
56043;SDS011;41912;51.022;3.664;2022-12-07T15:17:32;9.00;;;1.77;;
56043;SDS011;41912;51.022;3.664;2022-12-07T15:19:58;3.40;;;1.13;;
56043;SDS011;41912;51.022;3.664;2022-12-07T15:22:24;5.70;;;1.10;;
56043;SDS011;41912;51.022;3.664;2022-12-07T15:24:49;4.13;;;1.42;;
56043;SDS011;41912;51.022;3.664;2022-12-07T15:27:15;5.18;;;1.50;;
56043;SDS011;41912;51.022;3.664;2022-12-07T15:29:41;6.68;;;1.88;;
56043;SDS011;41912;51.022;3.664;2022-12-07T15:32:06;2.20;;;1.20;;
56043;SDS011;41912;51.022;3.664;2022-12-07T15:34:32;2.72;;;1.25;;
56043;SDS011;41912;51.022;3.664;2022-12-07T15:36:57;4.15;;;1.33;;
56043;SDS011;41912;51.022;3.664;2022-12-07T15:39:23;4.80;;;1.63;;
56043;SDS011;41912;51.022;3.664;2022-12-07T15:41:49;9.20;;;2.03;;
56043;SDS011;41912;51.022;3.664;2022-12-07T15:44:15;7.90;;;1.50;;
56043;SDS011;41912;51.022;3.664;2022-12-07T15:46:59;3.78;;;1.15;;
56043;SDS011;41912;51.022;3.664;2022-12-07T15:49:25;3.97;;;1.30;;
56043;SDS011;41912;51.022;3.664;2022-12-07T15:51:51;7.13;;;1.52;;
56043;SDS011;41912;51.022;3.664;2022-12-07T15:54:24;5.18;;;1.40;;
56043;SDS011;41912;51.022;3.664;2022-12-07T15:56:54;2.50;;;1.25;;
56043;SDS011;41912;51.022;3.664;2022-12-07T15:59:20;2.53;;;1.00;;
56043;SDS011;41912;51.022;3.664;2022-12-07T16:01:45;4.55;;;1.73;;
56043;SDS011;41912;51.022;3.664;2022-12-07T16:04:11;5.60;;;1.73;;
56043;SDS011;41912;51.022;3.664;2022-12-07T16:06:37;7.80;;;2.08;;
56043;SDS011;41912;51.022;3.664;2022-12-07T16:09:03;4.97;;;2.35;;
56043;SDS011;41912;51.022;3.664;2022-12-07T16:11:29;6.63;;;1.85;;
56043;SDS011;41912;51.022;3.664;2022-12-07T16:13:55;11.80;;;3.58;;
56043;SDS011;41912;51.022;3.664;2022-12-07T16:16:21;4.03;;;2.20;;
56043;SDS011;41912;51.022;3.664;2022-12-07T16:18:47;6.68;;;2.38;;
56043;SDS011;41912;51.022;3.664;2022-12-07T16:21:15;8.15;;;3.92;;
56043;SDS011;41912;51.022;3.664;2022-12-07T16:23:41;9.65;;;3.25;;
56043;SDS011;41912;51.022;3.664;2022-12-07T16:26:11;7.10;;;2.95;;
56043;SDS011;41912;51.022;3.664;2022-12-07T16:28:41;6.30;;;2.90;;
56043;SDS011;41912;51.022;3.664;2022-12-07T16:31:09;6.90;;;2.92;;
56043;SDS011;41912;51.022;3.664;2022-12-07T16:33:37;8.40;;;3.58;;
56043;SDS011;41912;51.022;3.664;2022-12-07T16:36:03;8.32;;;4.05;;
56043;SDS011;41912;51.022;3.664;2022-12-07T16:38:31;5.47;;;2.80;;
56043;SDS011;41912;51.022;3.664;2022-12-07T16:40:56;8.20;;;3.22;;
56043;SDS011;41912;51.022;3.664;2022-12-07T16:43:22;9.88;;;3.33;;
56043;SDS011;41912;51.022;3.664;2022-12-07T16:45:48;8.45;;;3.78;;
56043;SDS011;41912;51.022;3.664;2022-12-07T16:48:14;10.82;;;4.13;;
56043;SDS011;41912;51.022;3.664;2022-12-07T16:50:41;12.60;;;3.78;;
56043;SDS011;41912;51.022;3.664;2022-12-07T16:53:11;8.52;;;3.45;;
56043;SDS011;41912;51.022;3.664;2022-12-07T16:55:44;13.43;;;3.88;;
56043;SDS011;41912;51.022;3.664;2022-12-07T16:58:11;16.23;;;4.50;;
56043;SDS011;41912;51.022;3.664;2022-12-07T17:00:38;8.18;;;3.78;;
56043;SDS011;41912;51.022;3.664;2022-12-07T17:03:04;16.35;;;4.55;;
56043;SDS011;41912;51.022;3.664;2022-12-07T17:05:30;8.77;;;5.00;;
56043;SDS011;41912;51.022;3.664;2022-12-07T17:07:57;12.30;;;4.53;;
56043;SDS011;41912;51.022;3.664;2022-12-07T17:10:23;11.93;;;5.28;;
56043;SDS011;41912;51.022;3.664;2022-12-07T17:12:49;14.80;;;4.80;;
56043;SDS011;41912;51.022;3.664;2022-12-07T17:15:16;8.88;;;4.43;;
56043;SDS011;41912;51.022;3.664;2022-12-07T17:17:46;12.52;;;4.45;;
56043;SDS011;41912;51.022;3.664;2022-12-07T17:20:20;10.65;;;3.75;;